Terminal Aerodrome Forecast
Issued by NWS

Home | Current Version | Previous Version | Text Only | Print | Product List | Glossary On
Versions: 1 2 3 4 5 6 7 8 9 10 11 12 13 14 15 16 17 18 19 20 21 22 23 24
000
FTUS42 KMFL 182335
TAFOPF
TAF
KOPF 182335Z 1900/1924 16014KT P6SM FEW030 BKN250
     FM190700 16010KT P6SM VCTS SCT025CB BKN040 OVC100
     FM191400 23011KT P6SM VCSH SCT025 BKN050=

USA.gov is the U.S. government's official web portal to all federal, state and local government web resources and services.